Marlin Topaz — V7ML4 — position and weather

sailwx.info

Track history (hours):
 
Tides and Currents Weather Stations Pressure Air Temp Water Temp Dewpoint Dewpoint Depression Visibility Wind Speed Wind Dir Waves Ship Positions

Marlin Topaz

Last reported at 2014-Aug-11 15:25 UTC. Time now 2014-Sep-30 13:50 UTC.
Position N 38°47' W 031°24'.
Warning: this ship's position is 49 days out of date.

Length 183 m; draft 11.2 m.

Type: Ship (hazmat cat B). MMSI: 538002869.

Date/timePositionNaut miles runAvg speedWind from/ knotsBaromVisibWave heightAir tempDewpointWater temp
2014-Aug-11 15:25N 38°47' W 031°24'1512.0
2014-Aug-11 14:10N 38°55' W 031°08'2512.0
2014-Aug-11 12:06N 39°08' W 030°41'712.1
2014-Aug-11 11:33N 39°11' W 030°33'1212.3
2014-Aug-11 10:33N 39°17' W 030°20'1211.9
2014-Aug-11 09:33N 39°23' W 030°06'1211.8
2014-Aug-11 08:33N 39°29' W 029°53'1111.5
2014-Aug-11 07:34N 39°35' W 029°40'1211.5
2014-Aug-11 06:33N 39°40' W 029°26'1111.5
2014-Aug-11 05:33N 39°45' W 029°13'1111.4
2014-Aug-11 04:33N 39°51' W 029°01'1111.2
2014-Aug-11 03:33N 39°57' W 028°48'  
2014-Aug-06 10:05N 50°17' W 001°15'713.8
2014-Aug-06 09:33N 50°19' W 001°04'5412.6
2014-Aug-06 05:16N 50°33' E 000°17'811.0
2014-Aug-06 04:33N 50°35' E 000°29'1110.7
2014-Aug-06 03:33N 50°40' E 000°44'1111.5
2014-Aug-06 02:33N 50°47' E 000°59'1912.7
2014-Aug-06 01:05N 50°60' E 001°20'714.0
2014-Aug-06 00:34N 51°05' E 001°29'1312.7
2014-Aug-05 23:33N 51°13' E 001°44'1211.9
2014-Aug-05 22:33N 51°23' E 001°54'1111.2
2014-Aug-05 21:33N 51°32' E 002°04'1110.9
2014-Aug-05 20:33N 51°40' E 002°16'2210.8
2014-Aug-05 18:32N 51°57' E 002°38'1212.1
2014-Aug-05 17:31N 52°10' E 002°39'1212.7
2014-Aug-05 16:33N 52°21' E 002°46'1513.2
2014-Aug-05 15:25N 52°35' E 002°57'1813.1
2014-Aug-05 14:04N 52°50' E 003°11'612.7
2014-Aug-05 13:33N 52°56' E 003°16'3511.7
2014-Aug-05 10:33N 53°29' E 003°32'27411.9
2014-Aug-04 11:33N 57°12' E 008°14'7610.8
2014-Aug-04 04:33N 57°51' E 010°15'1111.0
2014-Aug-04 03:33N 57°51' E 010°36'9 9.2
2014-Aug-04 02:33N 57°44' E 010°46'3 2.6
2014-Aug-04 01:31N 57°41' E 010°44'0 0.0
2014-Aug-04 00:28N 57°41' E 010°44'0 0.0
2014-Aug-03 23:31N 57°41' E 010°44'0 0.0
2014-Aug-03 22:31N 57°41' E 010°44'0 0.1
2014-Aug-03 21:31N 57°41' E 010°44'0 0.0
2014-Aug-03 20:31N 57°41' E 010°44'0 0.0
2014-Aug-03 19:28N 57°41' E 010°44'0 0.0
2014-Aug-03 18:31N 57°41' E 010°44'0 0.0
2014-Aug-03 17:25N 57°41' E 010°44'51 8.6
2014-Aug-03 11:33N 57°02' E 011°43'1212.1
2014-Aug-03 10:33N 56°50' E 011°50'1211.8
2014-Aug-03 09:31N 56°38' E 011°47'1412.7
2014-Aug-03 08:25N 56°26' E 011°34'1212.6
2014-Aug-03 07:27N 56°16' E 011°22'8411.8
2014-Aug-03 00:19N 54°54' E 010°51'1213.1
2014-Aug-02 23:22N 54°41' E 010°53'1113.2
2014-Aug-02 22:33N 54°37' E 011°09'1313.5
2014-Aug-02 21:33N 54°31' E 011°30'1413.8
2014-Aug-02 20:34N 54°27' E 011°53'1211.5
2014-Aug-02 19:33N 54°29' E 012°13'1110.8
2014-Aug-02 18:34N 54°39' E 012°21'1212.3
2014-Aug-02 17:34N 54°46' E 012°39'1312.2
2014-Aug-02 16:31N 54°51' E 012°59'2412.3
2014-Aug-02 14:33N 54°59' E 013°39'1512.0
2014-Aug-02 13:18N 55°04' E 014°03'911.9
2014-Aug-02 12:32N 55°11' E 014°14'1212.3
2014-Aug-02 11:34N 55°20' E 014°26'1212.1
2014-Aug-02 10:34N 55°28' E 014°42'1311.9
2014-Aug-02 09:29N 55°35' E 015°02'2811.9
2014-Aug-02 07:06N 55°43' E 015°50'  
Track history (hours):
 
Tides and Currents Weather Stations Pressure Air Temp Water Temp Dewpoint Dewpoint Depression Visibility Wind Speed Wind Dir Waves Ship Positions

Marlin Topaz

Last reported at 2014-Aug-11 15:25 UTC. Time now 2014-Sep-30 13:50 UTC.
Position N 38°47' W 031°24'.
Warning: this ship's position is 49 days out of date.

Length 183 m; draft 11.2 m.

Type: Ship (hazmat cat B). MMSI: 538002869.

Date/timePositionNaut miles runAvg speedWind from/ knotsBaromVisibWave heightAir tempDewpointWater temp
2014-Aug-11 15:25N 38°47' W 031°24'1512.0
2014-Aug-11 14:10N 38°55' W 031°08'2512.0
2014-Aug-11 12:06N 39°08' W 030°41'712.1
2014-Aug-11 11:33N 39°11' W 030°33'1212.3
2014-Aug-11 10:33N 39°17' W 030°20'1211.9
2014-Aug-11 09:33N 39°23' W 030°06'1211.8
2014-Aug-11 08:33N 39°29' W 029°53'1111.5
2014-Aug-11 07:34N 39°35' W 029°40'1211.5
2014-Aug-11 06:33N 39°40' W 029°26'1111.5
2014-Aug-11 05:33N 39°45' W 029°13'1111.4
2014-Aug-11 04:33N 39°51' W 029°01'1111.2
2014-Aug-11 03:33N 39°57' W 028°48'  
2014-Aug-06 10:05N 50°17' W 001°15'713.8
2014-Aug-06 09:33N 50°19' W 001°04'5412.6
2014-Aug-06 05:16N 50°33' E 000°17'811.0
2014-Aug-06 04:33N 50°35' E 000°29'1110.7
2014-Aug-06 03:33N 50°40' E 000°44'1111.5
2014-Aug-06 02:33N 50°47' E 000°59'1912.7
2014-Aug-06 01:05N 50°60' E 001°20'714.0
2014-Aug-06 00:34N 51°05' E 001°29'1312.7
2014-Aug-05 23:33N 51°13' E 001°44'1211.9
2014-Aug-05 22:33N 51°23' E 001°54'1111.2
2014-Aug-05 21:33N 51°32' E 002°04'1110.9
2014-Aug-05 20:33N 51°40' E 002°16'2210.8
2014-Aug-05 18:32N 51°57' E 002°38'1212.1
2014-Aug-05 17:31N 52°10' E 002°39'1212.7
2014-Aug-05 16:33N 52°21' E 002°46'1513.2
2014-Aug-05 15:25N 52°35' E 002°57'1813.1
2014-Aug-05 14:04N 52°50' E 003°11'612.7
2014-Aug-05 13:33N 52°56' E 003°16'3511.7
2014-Aug-05 10:33N 53°29' E 003°32'27411.9
2014-Aug-04 11:33N 57°12' E 008°14'7610.8
2014-Aug-04 04:33N 57°51' E 010°15'1111.0
2014-Aug-04 03:33N 57°51' E 010°36'9 9.2
2014-Aug-04 02:33N 57°44' E 010°46'3 2.6
2014-Aug-04 01:31N 57°41' E 010°44'0 0.0
2014-Aug-04 00:28N 57°41' E 010°44'0 0.0
2014-Aug-03 23:31N 57°41' E 010°44'0 0.0
2014-Aug-03 22:31N 57°41' E 010°44'0 0.1
2014-Aug-03 21:31N 57°41' E 010°44'0 0.0
2014-Aug-03 20:31N 57°41' E 010°44'0 0.0
2014-Aug-03 19:28N 57°41' E 010°44'0 0.0
2014-Aug-03 18:31N 57°41' E 010°44'0 0.0
2014-Aug-03 17:25N 57°41' E 010°44'51 8.6
2014-Aug-03 11:33N 57°02' E 011°43'1212.1
2014-Aug-03 10:33N 56°50' E 011°50'1211.8
2014-Aug-03 09:31N 56°38' E 011°47'1412.7
2014-Aug-03 08:25N 56°26' E 011°34'1212.6
2014-Aug-03 07:27N 56°16' E 011°22'8411.8
2014-Aug-03 00:19N 54°54' E 010°51'1213.1
2014-Aug-02 23:22N 54°41' E 010°53'1113.2
2014-Aug-02 22:33N 54°37' E 011°09'1313.5
2014-Aug-02 21:33N 54°31' E 011°30'1413.8
2014-Aug-02 20:34N 54°27' E 011°53'1211.5
2014-Aug-02 19:33N 54°29' E 012°13'1110.8
2014-Aug-02 18:34N 54°39' E 012°21'1212.3
2014-Aug-02 17:34N 54°46' E 012°39'1312.2
2014-Aug-02 16:31N 54°51' E 012°59'2412.3
2014-Aug-02 14:33N 54°59' E 013°39'1512.0
2014-Aug-02 13:18N 55°04' E 014°03'911.9
2014-Aug-02 12:32N 55°11' E 014°14'1212.3
2014-Aug-02 11:34N 55°20' E 014°26'1212.1
2014-Aug-02 10:34N 55°28' E 014°42'1311.9
2014-Aug-02 09:29N 55°35' E 015°02'2811.9
2014-Aug-02 07:06N 55°43' E 015°50'  

Dump ship's entire track history